Time;durP1;ratioP1;P1;durP2;ratioP2;P2;SDS_P1;SDS_P2;PMS_P1;PMS_P2;Temp;Humidity;BMP_temperature;BMP_pressure;BME280_temperature;BME280_humidity;BME280_pressure;Samples;Min_cycle;Max_cycle;Signal;HPM_P1;HPM_P2
2021/01/15 06:01:53;;;;;;;;;;;;;;;;;;5065299;27;20373;-57
2021/01/15 06:04:19;;;;;;;0.10;0.10;;;;;;;;;;5058067;28;19909;-57
2021/01/15 06:06:47;;;;;;;0.20;0.20;;;;;;;;;;5048246;28;20029;-56
2021/01/15 06:09:19;;;;;;;0.10;0.10;;;;;;;;;;5047630;28;20489;-57
2021/01/15 06:11:45;;;;;;;0.10;0.10;;;;;;;;;;5051185;28;20129;-57
2021/01/15 06:14:29;;;;;;;0.75;0.75;;;;;;;;;;5047260;28;20029;-56
2021/01/15 06:17:01;;;;;;;0.20;0.20;;;;;;;;;;5047783;28;20116;-58
2021/01/15 06:19:42;;;;;;;0.10;0.10;;;;;;;;;;5048858;28;20030;-56
2021/01/15 06:22:09;;;;;;;0.10;0.10;;;;;;;;;;5048289;28;20025;-56
2021/01/15 06:24:39;;;;;;;0.10;0.10;;;;;;;;;;5046368;28;20061;-58
2021/01/15 06:27:06;;;;;;;1.20;0.77;;;;;;;;;;5049130;28;20548;-58
2021/01/15 06:29:44;;;;;;;1.30;1.27;;;;;;;;;;5049773;28;20148;-66
2021/01/15 06:32:11;;;;;;;0.15;0.15;;;;;;;;;;5045579;28;20045;-67
2021/01/15 06:34:47;;;;;;;0.47;0.47;;;;;;;;;;5047720;28;20024;-66
2021/01/15 06:37:19;;;;;;;0.68;0.68;;;;;;;;;;5046285;28;20048;-58
2021/01/15 06:40:00;;;;;;;6.35;0.40;;;;;;;;;;5046969;28;20025;-57
2021/01/15 06:42:29;;;;;;;0.10;0.10;;;;;;;;;;5044233;28;20060;-58
2021/01/15 06:44:55;;;;;;;0.38;0.38;;;;;;;;;;5051075;28;20104;-57
2021/01/15 06:47:22;;;;;;;0.10;0.10;;;;;;;;;;5048936;28;20065;-58
2021/01/15 06:49:50;;;;;;;0.13;0.13;;;;;;;;;;5048180;28;20037;-58
2021/01/15 06:52:25;;;;;;;0.35;0.35;;;;;;;;;;5048274;28;20803;-59
2021/01/15 06:54:53;;;;;;;0.10;0.10;;;;;;;;;;5047860;28;20047;-59
2021/01/15 06:57:20;;;;;;;0.32;0.32;;;;;;;;;;5044685;28;20022;-58
2021/01/15 06:59:54;;;;;;;0.10;0.10;;;;;;;;;;5051219;28;20029;-59
2021/01/15 07:02:27;;;;;;;0.10;0.10;;;;;;;;;;5033512;28;20108;-58
2021/01/15 07:04:58;;;;;;;0.10;0.10;;;;;;;;;;5034744;28;20021;-59
2021/01/15 07:07:27;;;;;;;0.10;0.10;;;;;;;;;;5035028;28;20032;-58
2021/01/15 07:09:53;;;;;;;0.10;0.10;;;;;;;;;;5027876;28;20037;-57
2021/01/15 07:12:20;;;;;;;0.10;0.10;;;;;;;;;;5030482;28;20025;-58
2021/01/15 07:14:48;;;;;;;3.42;3.10;;;;;;;;;;5032430;28;20501;-58
2021/01/15 07:17:15;;;;;;;1.65;0.55;;;;;;;;;;5030171;28;20053;-57
2021/01/15 07:19:43;;;;;;;0.77;0.60;;;;;;;;;;5028920;28;20551;-58
2021/01/15 07:22:10;;;;;;;0.10;0.10;;;;;;;;;;5031369;28;20029;-58
2021/01/15 07:24:42;;;;;;;0.10;0.10;;;;;;;;;;5030015;28;20101;-58
2021/01/15 07:27:10;;;;;;;0.10;0.10;;;;;;;;;;5018588;28;20099;-57
2021/01/15 07:29:40;;;;;;;0.10;0.10;;;;;;;;;;5031649;28;20029;-58
2021/01/15 07:32:08;;;;;;;0.22;0.22;;;;;;;;;;5029808;28;20049;-58
2021/01/15 07:34:36;;;;;;;0.10;0.10;;;;;;;;;;5028784;28;20475;-57
2021/01/15 07:37:17;;;;;;;0.10;0.10;;;;;;;;;;5029894;28;20079;-56
2021/01/15 07:40:04;;;;;;;0.10;0.10;;;;;;;;;;5029741;28;20108;-56
2021/01/15 07:42:39;;;;;;;8.93;1.63;;;;;;;;;;5028580;28;20022;-56
2021/01/15 07:45:05;;;;;;;;;;;;;;;;;;5032614;28;20037;-54
2021/01/15 07:47:31;;;;;;;;;;;;;;;;;;5031344;28;19913;-57
2021/01/15 07:49:58;;;;;;;0.10;0.10;;;;;;;;;;5027944;28;20345;-58
2021/01/15 07:52:24;;;;;;;0.10;0.10;;;;;;;;;;5027093;28;20036;-57
2021/01/15 07:54:50;;;;;;;0.30;0.28;;;;;;;;;;5027556;28;20036;-56
2021/01/15 07:57:17;;;;;;;5.57;0.85;;;;;;;;;;5027722;28;20029;-56
2021/01/15 07:59:43;;;;;;;0.32;0.32;;;;;;;;;;5028896;28;20544;-57
2021/01/15 08:02:10;;;;;;;0.98;0.75;;;;;;;;;;5026909;28;20022;-57
2021/01/15 08:04:36;;;;;;;0.30;0.30;;;;;;;;;;5027663;28;20368;-56
2021/01/15 08:07:15;;;;;;;0.10;0.10;;;;;;;;;;5026939;28;20022;-58
2021/01/15 08:09:42;;;;;;;0.10;0.10;;;;;;;;;;5027466;28;20402;-56
2021/01/15 08:12:08;;;;;;;0.10;0.10;;;;;;;;;;5027893;28;20494;-58
2021/01/15 08:14:34;;;;;;;0.10;0.10;;;;;;;;;;5027405;28;20112;-58
2021/01/15 08:17:03;;;;;;;0.10;0.10;;;;;;;;;;5025013;28;20506;-57
2021/01/15 08:19:35;;;;;;;0.10;0.10;;;;;;;;;;5026433;28;20121;-57
2021/01/15 08:22:02;;;;;;;0.10;0.10;;;;;;;;;;5026598;28;20509;-58
2021/01/15 08:24:28;;;;;;;0.10;0.10;;;;;;;;;;5027247;28;20360;-57
2021/01/15 08:26:54;;;;;;;1.38;1.27;;;;;;;;;;5030001;28;20418;-56
2021/01/15 08:29:21;;;;;;;0.95;0.95;;;;;;;;;;5027251;28;20064;-57
2021/01/15 08:31:48;;;;;;;0.10;0.10;;;;;;;;;;5028849;28;20772;-56
2021/01/15 08:34:15;;;;;;;0.10;0.10;;;;;;;;;;5018396;28;20021;-55
2021/01/15 08:36:45;;;;;;;0.32;0.32;;;;;;;;;;5026225;28;20513;-57
2021/01/15 08:39:12;;;;;;;0.73;0.73;;;;;;;;;;5028449;28;20034;-57
2021/01/15 08:41:39;;;;;;;0.10;0.10;;;;;;;;;;5028543;28;20112;-56
2021/01/15 08:44:07;;;;;;;0.10;0.10;;;;;;;;;;5026198;28;20022;-58
2021/01/15 08:46:34;;;;;;;0.10;0.10;;;;;;;;;;5027429;28;20041;-56
2021/01/15 08:49:06;;;;;;;0.10;0.10;;;;;;;;;;5025673;28;20025;-57
2021/01/15 08:51:34;;;;;;;0.10;0.10;;;;;;;;;;5016087;28;20466;-56
2021/01/15 08:54:04;;;;;;;0.10;0.10;;;;;;;;;;5030818;28;20014;-57
2021/01/15 08:56:51;;;;;;;0.10;0.10;;;;;;;;;;5029198;28;20399;-58
2021/01/15 08:59:28;;;;;;;0.10;0.10;;;;;;;;;;5027703;28;20025;-57
2021/01/15 09:01:55;;;;;;;0.10;0.10;;;;;;;;;;5028020;28;20490;-56
2021/01/15 09:04:25;;;;;;;0.10;0.10;;;;;;;;;;5028334;28;20034;-58
2021/01/15 09:06:53;;;;;;;1.08;1.08;;;;;;;;;;5028186;28;20494;-58
2021/01/15 09:09:20;;;;;;;0.10;0.10;;;;;;;;;;5028765;28;20022;-58
2021/01/15 09:11:48;;;;;;;0.10;0.10;;;;;;;;;;5030826;28;20612;-59
2021/01/15 09:14:15;;;;;;;0.15;0.15;;;;;;;;;;5030397;28;20394;-56
2021/01/15 09:16:41;;;;;;;0.10;0.10;;;;;;;;;;5029326;28;20145;-58
2021/01/15 09:19:09;;;;;;;0.10;0.10;;;;;;;;;;5027983;28;20025;-58
2021/01/15 09:22:01;;;;;;;0.10;0.10;;;;;;;;;;5027882;28;20018;-57
2021/01/15 09:24:28;;;;;;;0.10;0.10;;;;;;;;;;5012671;28;20026;-57
2021/01/15 09:27:13;;;;;;;0.10;0.10;;;;;;;;;;5023992;28;20034;-57
2021/01/15 09:29:40;;;;;;;0.10;0.10;;;;;;;;;;5029481;28;20037;-57
2021/01/15 09:32:06;;;;;;;0.10;0.10;;;;;;;;;;5026870;28;20029;-57
2021/01/15 09:34:32;;;;;;;0.10;0.10;;;;;;;;;;5028708;28;20025;-56
2021/01/15 09:36:59;;;;;;;0.10;0.10;;;;;;;;;;5026713;28;20490;-56
2021/01/15 09:39:26;;;;;;;0.10;0.10;;;;;;;;;;5027659;28;20028;-56
2021/01/15 09:41:56;;;;;;;0.10;0.10;;;;;;;;;;5031140;28;20026;-58
2021/01/15 09:44:23;;;;;;;0.10;0.10;;;;;;;;;;5028784;28;20037;-57
2021/01/15 09:46:50;;;;;;;0.10;0.10;;;;;;;;;;5027086;28;20491;-57
2021/01/15 09:49:16;;;;;;;0.10;0.10;;;;;;;;;;5026616;28;20034;-57
2021/01/15 09:51:43;;;;;;;0.10;0.10;;;;;;;;;;5027369;28;20176;-57
2021/01/15 09:54:09;;;;;;;0.10;0.10;;;;;;;;;;5028180;28;20017;-58
2021/01/15 09:56:43;;;;;;;0.10;0.10;;;;;;;;;;5028286;28;20029;-56
2021/01/15 09:59:10;;;;;;;0.10;0.10;;;;;;;;;;5026259;28;20018;-57
2021/01/15 10:01:36;;;;;;;0.10;0.10;;;;;;;;;;5026754;28;20427;-56
2021/01/15 10:04:03;;;;;;;0.10;0.10;;;;;;;;;;5026765;28;20059;-57
2021/01/15 10:06:29;;;;;;;0.20;0.20;;;;;;;;;;5028682;28;20044;-56
2021/01/15 10:08:58;;;;;;;1.08;1.08;;;;;;;;;;5030564;28;20108;-56
2021/01/15 10:11:29;;;;;;;0.52;0.45;;;;;;;;;;5026741;28;20076;-58
2021/01/15 10:13:56;;;;;;;0.10;0.10;;;;;;;;;;5026880;28;20033;-56
2021/01/15 10:16:22;;;;;;;0.10;0.10;;;;;;;;;;5026571;28;20032;-57
2021/01/15 10:18:48;;;;;;;0.10;0.10;;;;;;;;;;5027019;28;20495;-55
2021/01/15 10:21:18;;;;;;;0.17;0.17;;;;;;;;;;5028230;28;20025;-56
2021/01/15 10:23:44;;;;;;;0.10;0.10;;;;;;;;;;5029464;28;20457;-57
2021/01/15 10:26:10;;;;;;;0.35;0.35;;;;;;;;;;5026777;28;20018;-54
2021/01/15 10:28:36;;;;;;;0.10;0.10;;;;;;;;;;5026875;28;20017;-56
2021/01/15 10:31:02;;;;;;;1.65;1.08;;;;;;;;;;5027028;28;20041;-56
2021/01/15 10:33:29;;;;;;;0.10;0.10;;;;;;;;;;5026987;28;20121;-56
2021/01/15 10:35:55;;;;;;;0.10;0.10;;;;;;;;;;5030301;28;20028;-57
2021/01/15 10:38:21;;;;;;;0.10;0.10;;;;;;;;;;5030656;28;20029;-56
2021/01/15 10:40:47;;;;;;;0.50;0.50;;;;;;;;;;5032105;28;20500;-57
2021/01/15 10:43:13;;;;;;;0.10;0.10;;;;;;;;;;5029088;28;20038;-56
2021/01/15 10:45:39;;;;;;;0.98;0.57;;;;;;;;;;5031167;28;20502;-57
2021/01/15 10:48:07;;;;;;;0.50;0.30;;;;;;;;;;5032215;28;20025;-56
2021/01/15 10:50:33;;;;;;;0.95;0.95;;;;;;;;;;5031868;28;20414;-55
2021/01/15 10:52:59;;;;;;;3.05;0.60;;;;;;;;;;5026881;28;20033;-54
2021/01/15 10:55:26;;;;;;;0.45;0.45;;;;;;;;;;5029849;28;20552;-56
2021/01/15 10:57:52;;;;;;;1.95;0.57;;;;;;;;;;5029142;28;20036;-54
2021/01/15 11:00:19;;;;;;;0.13;0.13;;;;;;;;;;5021844;28;20057;-56
2021/01/15 11:02:51;;;;;;;0.13;0.13;;;;;;;;;;5033228;28;20029;-56
2021/01/15 11:05:17;;;;;;;0.13;0.13;;;;;;;;;;5030056;28;20029;-55
2021/01/15 11:07:45;;;;;;;0.43;0.43;;;;;;;;;;5030120;28;20021;-56
2021/01/15 11:10:13;;;;;;;0.10;0.10;;;;;;;;;;5030229;28;20029;-55
2021/01/15 11:12:39;;;;;;;0.17;0.17;;;;;;;;;;5029927;28;20475;-55
2021/01/15 11:15:06;;;;;;;0.20;0.20;;;;;;;;;;5032305;28;20398;-55
2021/01/15 11:17:32;;;;;;;0.30;0.30;;;;;;;;;;5031150;28;20021;-58
2021/01/15 11:19:58;;;;;;;0.40;0.25;;;;;;;;;;5030023;28;20018;-55
2021/01/15 11:22:24;;;;;;;0.25;0.25;;;;;;;;;;5028401;28;20029;-57
2021/01/15 11:24:52;;;;;;;0.10;0.10;;;;;;;;;;5029958;28;20029;-57
2021/01/15 11:27:18;;;;;;;0.30;0.30;;;;;;;;;;5031318;28;20438;-56
2021/01/15 11:29:44;;;;;;;0.10;0.10;;;;;;;;;;5032236;28;20098;-55
2021/01/15 11:32:10;;;;;;;0.10;0.10;;;;;;;;;;5029374;28;20514;-55
2021/01/15 11:34:36;;;;;;;0.30;0.30;;;;;;;;;;5028578;28;20505;-55
2021/01/15 11:37:02;;;;;;;0.38;0.38;;;;;;;;;;5028167;28;20407;-56
2021/01/15 11:39:28;;;;;;;0.20;0.20;;;;;;;;;;5031028;28;20018;-56
2021/01/15 11:41:55;;;;;;;4.93;0.57;;;;;;;;;;5031608;28;20036;-57
2021/01/15 11:44:21;;;;;;;0.40;0.40;;;;;;;;;;5031227;28;20487;-54
2021/01/15 11:46:47;;;;;;;0.25;0.25;;;;;;;;;;5029399;28;20608;-56
2021/01/15 11:49:13;;;;;;;0.40;0.40;;;;;;;;;;5031313;28;20028;-57
2021/01/15 11:51:40;;;;;;;0.20;0.20;;;;;;;;;;5030943;28;20114;-57
2021/01/15 11:54:12;;;;;;;0.10;0.10;;;;;;;;;;5031166;28;20017;-57
2021/01/15 11:56:40;;;;;;;0.57;0.55;;;;;;;;;;5030798;28;20038;-55
2021/01/15 11:59:06;;;;;;;0.13;0.13;;;;;;;;;;5028938;28;20108;-56
2021/01/15 12:01:32;;;;;;;0.13;0.13;;;;;;;;;;5029014;28;20107;-56
2021/01/15 12:03:58;;;;;;;0.10;0.10;;;;;;;;;;5028069;28;20025;-56
2021/01/15 12:06:25;;;;;;;0.10;0.10;;;;;;;;;;5028020;28;20036;-56
2021/01/15 12:08:51;;;;;;;0.10;0.10;;;;;;;;;;5026890;28;20029;-55
2021/01/15 12:11:17;;;;;;;0.30;0.30;;;;;;;;;;5028942;28;20045;-56
2021/01/15 12:13:43;;;;;;;2.17;0.63;;;;;;;;;;5028620;28;20445;-57
2021/01/15 12:16:11;;;;;;;0.30;0.30;;;;;;;;;;5029162;28;20026;-56
2021/01/15 12:18:37;;;;;;;0.52;0.52;;;;;;;;;;5030178;28;20021;-55
2021/01/15 12:21:04;;;;;;;1.45;0.57;;;;;;;;;;5030717;28;20038;-58
2021/01/15 12:23:30;;;;;;;0.30;0.30;;;;;;;;;;5031204;28;20009;-56
2021/01/15 12:25:56;;;;;;;1.08;1.05;;;;;;;;;;5025638;28;20025;-56
2021/01/15 12:28:22;;;;;;;0.20;0.20;;;;;;;;;;5027850;28;20029;-56
2021/01/15 12:30:51;;;;;;;0.10;0.10;;;;;;;;;;5028660;28;20037;-57
2021/01/15 12:33:17;;;;;;;0.20;0.20;;;;;;;;;;5029195;28;20033;-56
2021/01/15 12:35:45;;;;;;;0.20;0.20;;;;;;;;;;5027842;28;20025;-56
2021/01/15 12:38:12;;;;;;;0.30;0.30;;;;;;;;;;5027624;28;20083;-56
2021/01/15 12:40:39;;;;;;;0.10;0.10;;;;;;;;;;5028098;28;20125;-56
2021/01/15 12:43:06;;;;;;;0.40;0.40;;;;;;;;;;5028815;28;20025;-56
2021/01/15 12:45:33;;;;;;;0.93;0.63;;;;;;;;;;5017764;28;20042;-57
2021/01/15 12:47:59;;;;;;;0.30;0.30;;;;;;;;;;5028360;28;20597;-56
2021/01/15 12:50:26;;;;;;;0.10;0.10;;;;;;;;;;5029610;28;20041;-58
2021/01/15 12:52:55;;;;;;;0.10;0.10;;;;;;;;;;5027403;28;20102;-57
2021/01/15 12:55:22;;;;;;;2.50;0.35;;;;;;;;;;5027124;28;20840;-55
2021/01/15 12:57:48;;;;;;;0.10;0.10;;;;;;;;;;5028484;28;20017;-56
2021/01/15 13:00:15;;;;;;;0.20;0.20;;;;;;;;;;5027767;28;20085;-56
2021/01/15 13:02:41;;;;;;;0.10;0.10;;;;;;;;;;5028770;28;20026;-56
2021/01/15 13:05:07;;;;;;;0.20;0.20;;;;;;;;;;5029413;28;20025;-53
2021/01/15 13:07:34;;;;;;;0.10;0.10;;;;;;;;;;5027988;28;20514;-56
2021/01/15 13:10:00;;;;;;;0.10;0.10;;;;;;;;;;5026430;28;20041;-56
2021/01/15 13:12:26;;;;;;;0.10;0.10;;;;;;;;;;5023576;28;20030;-55
2021/01/15 13:14:52;;;;;;;0.13;0.13;;;;;;;;;;5030653;28;20041;-57
2021/01/15 13:17:19;;;;;;;2.40;1.13;;;;;;;;;;5026934;28;20490;-56
2021/01/15 13:19:46;;;;;;;0.25;0.25;;;;;;;;;;5027422;28;20104;-56
2021/01/15 13:22:12;;;;;;;2.17;0.20;;;;;;;;;;5027257;28;20025;-57
2021/01/15 13:24:38;;;;;;;0.10;0.10;;;;;;;;;;5028162;28;20036;-56
2021/01/15 13:27:05;;;;;;;0.10;0.10;;;;;;;;;;5029048;28;20029;-56
2021/01/15 13:29:31;;;;;;;0.10;0.10;;;;;;;;;;5030334;28;20032;-56
2021/01/15 13:31:57;;;;;;;0.20;0.20;;;;;;;;;;5026900;28;20021;-56
2021/01/15 13:34:23;;;;;;;1.73;1.08;;;;;;;;;;5026374;28;20409;-55
2021/01/15 13:36:50;;;;;;;4.25;1.00;;;;;;;;;;5027183;28;20083;-56
2021/01/15 13:39:16;;;;;;;0.10;0.10;;;;;;;;;;5028894;28;20036;-57
2021/01/15 13:41:43;;;;;;;0.20;0.20;;;;;;;;;;5029309;28;20040;-55
2021/01/15 13:44:09;;;;;;;0.10;0.10;;;;;;;;;;5042045;28;20446;-56
2021/01/15 13:46:35;;;;;;;0.10;0.10;;;;;;;;;;5026448;28;20048;-56
2021/01/15 13:49:02;;;;;;;0.10;0.10;;;;;;;;;;5026556;28;20052;-57
2021/01/15 13:51:28;;;;;;;0.20;0.20;;;;;;;;;;5028093;28;20037;-55
2021/01/15 13:53:54;;;;;;;0.20;0.20;;;;;;;;;;5028922;28;20429;-56
2021/01/15 13:56:21;;;;;;;0.10;0.10;;;;;;;;;;5028930;28;20040;-57
2021/01/15 13:58:47;;;;;;;0.10;0.10;;;;;;;;;;5026475;28;20479;-54
2021/01/15 14:01:14;;;;;;;0.10;0.10;;;;;;;;;;5028464;28;20418;-56
2021/01/15 14:03:40;;;;;;;0.38;0.32;;;;;;;;;;5028301;28;20033;-56
2021/01/15 14:06:06;;;;;;;0.60;0.60;;;;;;;;;;5029120;28;20469;-55
2021/01/15 14:08:32;;;;;;;1.13;0.63;;;;;;;;;;5028242;28;20034;-55
2021/01/15 14:10:59;;;;;;;0.20;0.20;;;;;;;;;;5026362;28;20399;-55
2021/01/15 14:13:25;;;;;;;0.20;0.20;;;;;;;;;;5030560;28;20508;-57
2021/01/15 14:15:51;;;;;;;0.20;0.20;;;;;;;;;;5030226;28;20021;-56
2021/01/15 14:18:17;;;;;;;0.10;0.10;;;;;;;;;;5031165;28;20494;-52
2021/01/15 14:20:43;;;;;;;0.10;0.10;;;;;;;;;;5032422;28;20044;-55
2021/01/15 14:23:09;;;;;;;0.10;0.10;;;;;;;;;;5030844;28;20433;-55
2021/01/15 14:25:35;;;;;;;0.10;0.10;;;;;;;;;;5030808;28;20029;-55
2021/01/15 14:28:02;;;;;;;0.10;0.10;;;;;;;;;;5031671;28;20033;-55
2021/01/15 14:30:28;;;;;;;1.10;0.82;;;;;;;;;;5030814;28;20116;-56
2021/01/15 14:32:55;;;;;;;0.10;0.10;;;;;;;;;;5034270;28;20018;-56
2021/01/15 14:35:25;;;;;;;0.35;0.35;;;;;;;;;;5031881;28;20410;-55
2021/01/15 14:38:00;;;;;;;0.10;0.10;;;;;;;;;;5030142;28;20025;-57
2021/01/15 14:40:26;;;;;;;0.73;0.73;;;;;;;;;;5030859;28;20060;-56
2021/01/15 14:42:53;;;;;;;0.25;0.25;;;;;;;;;;5030426;28;20037;-56
2021/01/15 14:45:19;;;;;;;1.17;1.00;;;;;;;;;;5031503;28;20407;-56
2021/01/15 14:47:45;;;;;;;0.35;0.35;;;;;;;;;;5032931;28;20033;-57
2021/01/15 14:50:13;;;;;;;5.95;0.68;;;;;;;;;;5029631;28;20033;-56
2021/01/15 14:52:43;;;;;;;0.17;0.17;;;;;;;;;;5031076;28;20380;-56
2021/01/15 14:55:09;;;;;;;0.13;0.13;;;;;;;;;;5030987;28;20483;-54
2021/01/15 14:57:39;;;;;;;0.10;0.10;;;;;;;;;;5029716;28;20038;-56
2021/01/15 15:00:07;;;;;;;0.10;0.10;;;;;;;;;;5027113;28;20073;-57
2021/01/15 15:02:38;;;;;;;2.25;0.90;;;;;;;;;;5032002;28;20029;-55
2021/01/15 15:05:05;;;;;;;0.30;0.30;;;;;;;;;;5028717;28;20029;-56
2021/01/15 15:07:31;;;;;;;0.80;0.80;;;;;;;;;;5028742;28;20087;-57
2021/01/15 15:09:57;;;;;;;0.15;0.15;;;;;;;;;;5030477;28;20065;-55
2021/01/15 15:12:23;;;;;;;0.10;0.10;;;;;;;;;;5014672;28;20030;-53
2021/01/15 15:14:49;;;;;;;0.10;0.10;;;;;;;;;;5033435;28;20021;-57
2021/01/15 15:17:15;;;;;;;0.10;0.10;;;;;;;;;;5029638;28;20021;-54
2021/01/15 15:19:41;;;;;;;0.10;0.10;;;;;;;;;;5027834;28;20025;-56
2021/01/15 15:22:10;;;;;;;0.10;0.10;;;;;;;;;;5028312;28;20513;-57
2021/01/15 15:24:37;;;;;;;0.10;0.10;;;;;;;;;;5028565;28;20125;-57
2021/01/15 15:27:03;;;;;;;0.10;0.10;;;;;;;;;;5031935;28;20061;-55
2021/01/15 15:29:31;;;;;;;0.10;0.10;;;;;;;;;;5031909;28;20021;-55
2021/01/15 15:31:57;;;;;;;0.10;0.10;;;;;;;;;;5028018;28;20026;-56
2021/01/15 15:34:23;;;;;;;0.10;0.10;;;;;;;;;;5029403;28;20033;-56
2021/01/15 15:36:56;;;;;;;0.20;0.20;;;;;;;;;;5029174;28;20100;-57
2021/01/15 15:39:24;;;;;;;0.10;0.10;;;;;;;;;;5028851;28;20600;-55
2021/01/15 15:41:56;;;;;;;0.10;0.10;;;;;;;;;;5030060;28;20017;-55
2021/01/15 15:44:23;;;;;;;0.13;0.13;;;;;;;;;;5028065;28;20037;-57
2021/01/15 15:46:49;;;;;;;0.20;0.20;;;;;;;;;;5025478;28;20026;-56
2021/01/15 15:49:16;;;;;;;0.10;0.10;;;;;;;;;;5029000;28;20399;-56
2021/01/15 15:51:47;;;;;;;0.10;0.10;;;;;;;;;;5029494;28;20022;-56
2021/01/15 15:54:13;;;;;;;0.20;0.20;;;;;;;;;;5031203;28;20037;-56
2021/01/15 15:56:39;;;;;;;0.10;0.10;;;;;;;;;;5030842;28;20026;-55
2021/01/15 15:59:05;;;;;;;0.10;0.10;;;;;;;;;;5028374;28;20026;-56
2021/01/15 16:01:31;;;;;;;0.10;0.10;;;;;;;;;;5024609;28;20099;-54
2021/01/15 16:03:57;;;;;;;0.20;0.20;;;;;;;;;;5025746;28;20083;-56
2021/01/15 16:06:23;;;;;;;0.10;0.10;;;;;;;;;;5022999;28;20446;-54
2021/01/15 16:08:50;;;;;;;0.10;0.10;;;;;;;;;;5028638;28;20045;-56
2021/01/15 16:11:16;;;;;;;0.10;0.10;;;;;;;;;;5027851;28;20053;-55
2021/01/15 16:13:42;;;;;;;0.10;0.10;;;;;;;;;;5028323;28;20035;-56
2021/01/15 16:16:08;;;;;;;0.20;0.20;;;;;;;;;;5026347;28;20096;-56
2021/01/15 16:18:34;;;;;;;0.10;0.10;;;;;;;;;;5028544;28;20030;-55
2021/01/15 16:21:00;;;;;;;0.17;0.17;;;;;;;;;;5030098;28;20025;-52
2021/01/15 16:23:27;;;;;;;0.20;0.20;;;;;;;;;;5029214;28;20022;-55
2021/01/15 16:25:53;;;;;;;0.10;0.10;;;;;;;;;;5024707;28;20021;-55
2021/01/15 16:28:19;;;;;;;0.10;0.10;;;;;;;;;;5027790;28;20108;-56
2021/01/15 16:30:45;;;;;;;0.20;0.20;;;;;;;;;;5023952;28;20125;-54
2021/01/15 16:33:18;;;;;;;0.10;0.10;;;;;;;;;;5028982;28;20048;-56
2021/01/15 16:35:45;;;;;;;0.20;0.20;;;;;;;;;;5028943;28;20084;-57
2021/01/15 16:38:18;;;;;;;0.10;0.10;;;;;;;;;;5028801;28;20059;-55
2021/01/15 16:40:45;;;;;;;0.20;0.20;;;;;;;;;;5028088;28;20071;-57
2021/01/15 16:43:11;;;;;;;0.10;0.10;;;;;;;;;;5029256;28;20044;-55
2021/01/15 16:45:37;;;;;;;0.10;0.10;;;;;;;;;;5028627;28;20030;-54
2021/01/15 16:48:03;;;;;;;0.10;0.10;;;;;;;;;;5029290;28;20491;-57
2021/01/15 16:50:30;;;;;;;0.10;0.10;;;;;;;;;;5030235;28;20069;-57
2021/01/15 16:52:56;;;;;;;0.20;0.20;;;;;;;;;;5028259;28;20029;-57
2021/01/15 16:55:22;;;;;;;0.20;0.20;;;;;;;;;;5026710;28;20043;-57
2021/01/15 16:57:48;;;;;;;0.20;0.20;;;;;;;;;;5027588;28;20491;-55
2021/01/15 17:00:15;;;;;;;0.10;0.10;;;;;;;;;;5023516;28;20064;-58
2021/01/15 17:02:41;;;;;;;0.10;0.10;;;;;;;;;;5025403;28;20160;-57
2021/01/15 17:05:07;;;;;;;0.22;0.22;;;;;;;;;;5024191;28;20407;-57
2021/01/15 17:07:33;;;;;;;0.20;0.20;;;;;;;;;;5027221;28;20548;-56
2021/01/15 17:09:59;;;;;;;0.10;0.10;;;;;;;;;;5027505;28;20033;-52
2021/01/15 17:12:25;;;;;;;0.15;0.15;;;;;;;;;;5027104;28;20017;-56
2021/01/15 17:14:51;;;;;;;0.20;0.20;;;;;;;;;;5029119;28;20029;-56
2021/01/15 17:17:18;;;;;;;0.30;0.30;;;;;;;;;;5027973;28;20025;-55
2021/01/15 17:19:44;;;;;;;0.20;0.20;;;;;;;;;;5026237;28;20072;-55
2021/01/15 17:22:10;;;;;;;0.20;0.20;;;;;;;;;;5027586;28;20029;-56
2021/01/15 17:24:36;;;;;;;0.20;0.20;;;;;;;;;;5027290;28;20025;-57
2021/01/15 17:27:03;;;;;;;0.10;0.10;;;;;;;;;;5027360;28;20144;-58
2021/01/15 17:29:29;;;;;;;0.15;0.15;;;;;;;;;;5028178;28;20060;-57
2021/01/15 17:31:55;;;;;;;0.20;0.20;;;;;;;;;;5029703;28;20462;-57
2021/01/15 17:34:22;;;;;;;0.28;0.28;;;;;;;;;;5029152;28;20025;-58
2021/01/15 17:36:55;;;;;;;0.20;0.20;;;;;;;;;;5029690;28;20052;-57
2021/01/15 17:39:22;;;;;;;0.10;0.10;;;;;;;;;;5029371;28;20057;-57
2021/01/15 17:41:48;;;;;;;7.93;6.95;;;;;;;;;;5027603;28;20034;-57
2021/01/15 17:44:15;;;;;;;0.10;0.10;;;;;;;;;;5029237;28;20029;-57
2021/01/15 17:46:42;;;;;;;0.30;0.30;;;;;;;;;;5029225;28;20064;-56
2021/01/15 17:49:08;;;;;;;0.10;0.10;;;;;;;;;;5026207;28;20014;-57
2021/01/15 17:51:35;;;;;;;0.63;0.63;;;;;;;;;;5028389;28;20096;-61
2021/01/15 17:54:02;;;;;;;0.63;0.63;;;;;;;;;;5024202;28;20045;-56
2021/01/15 17:56:28;;;;;;;0.20;0.20;;;;;;;;;;5030731;28;20112;-59
2021/01/15 17:58:54;;;;;;;0.10;0.10;;;;;;;;;;5029576;28;20024;-57
2021/01/15 18:01:20;;;;;;;2.67;0.98;;;;;;;;;;5028487;28;20530;-58
2021/01/15 18:03:47;;;;;;;0.13;0.13;;;;;;;;;;5026329;28;20033;-55
2021/01/15 18:06:13;;;;;;;0.20;0.20;;;;;;;;;;5029177;28;20439;-56
2021/01/15 18:08:40;;;;;;;0.20;0.20;;;;;;;;;;5028161;28;20040;-58
2021/01/15 18:11:08;;;;;;;0.10;0.10;;;;;;;;;;5028707;28;20029;-57
2021/01/15 18:13:34;;;;;;;0.20;0.20;;;;;;;;;;5030535;28;20025;-56
2021/01/15 18:16:01;;;;;;;0.10;0.10;;;;;;;;;;5029095;28;20153;-58
2021/01/15 18:18:27;;;;;;;0.20;0.20;;;;;;;;;;5028195;28;20033;-59
2021/01/15 18:20:54;;;;;;;0.10;0.10;;;;;;;;;;5027592;28;20076;-57
2021/01/15 18:23:20;;;;;;;0.52;0.52;;;;;;;;;;5028834;28;20025;-58
2021/01/15 18:25:46;;;;;;;0.20;0.20;;;;;;;;;;5027710;28;20041;-57
2021/01/15 18:28:12;;;;;;;0.30;0.30;;;;;;;;;;5029010;28;20036;-57
2021/01/15 18:30:38;;;;;;;0.20;0.20;;;;;;;;;;5028534;28;20041;-58
2021/01/15 18:33:05;;;;;;;0.10;0.10;;;;;;;;;;5028468;28;20048;-58
2021/01/15 18:35:32;;;;;;;0.20;0.20;;;;;;;;;;5027229;28;20491;-58
2021/01/15 18:38:00;;;;;;;0.10;0.10;;;;;;;;;;5026617;28;20394;-58
2021/01/15 18:40:27;;;;;;;0.55;0.55;;;;;;;;;;5028675;28;20032;-59
2021/01/15 18:42:53;;;;;;;0.20;0.20;;;;;;;;;;5029777;28;20025;-57
2021/01/15 18:45:20;;;;;;;0.35;0.35;;;;;;;;;;5031249;28;20033;-58
2021/01/15 18:47:48;;;;;;;0.25;0.25;;;;;;;;;;5030071;28;20029;-58
2021/01/15 18:50:18;;;;;;;0.20;0.20;;;;;;;;;;5031283;28;20034;-58
2021/01/15 18:52:44;;;;;;;0.30;0.30;;;;;;;;;;5032252;28;20024;-58
2021/01/15 18:55:10;;;;;;;0.20;0.20;;;;;;;;;;5031032;28;20056;-57
2021/01/15 18:57:49;;;;;;;0.20;0.20;;;;;;;;;;5031233;28;20459;-56
2021/01/15 19:00:16;;;;;;;0.20;0.20;;;;;;;;;;5034579;28;20041;-58
2021/01/15 19:02:42;;;;;;;1.00;1.00;;;;;;;;;;5033660;28;20029;-58
2021/01/15 19:05:09;;;;;;;0.20;0.20;;;;;;;;;;5033142;28;20029;-58
2021/01/15 19:07:35;;;;;;;0.30;0.30;;;;;;;;;;5034691;28;20044;-57
2021/01/15 19:10:01;;;;;;;0.30;0.30;;;;;;;;;;5026632;28;20037;-58
2021/01/15 19:12:28;;;;;;;0.20;0.20;;;;;;;;;;5033664;28;20037;-58
2021/01/15 19:14:55;;;;;;;0.75;0.75;;;;;;;;;;5040898;28;20100;-57
2021/01/15 19:17:21;;;;;;;0.10;0.10;;;;;;;;;;5029590;28;20036;-56
2021/01/15 19:19:48;;;;;;;0.20;0.20;;;;;;;;;;5037916;28;20029;-58
2021/01/15 19:22:14;;;;;;;0.28;0.28;;;;;;;;;;5035630;28;20399;-58
2021/01/15 19:24:40;;;;;;;0.22;0.22;;;;;;;;;;5021687;28;20025;-59
2021/01/15 19:27:06;;;;;;;0.20;0.20;;;;;;;;;;5030541;28;20541;-58
2021/01/15 19:29:32;;;;;;;0.10;0.10;;;;;;;;;;5024433;28;20054;-58
2021/01/15 19:31:58;;;;;;;0.20;0.20;;;;;;;;;;5027753;28;20489;-57
2021/01/15 19:34:24;;;;;;;1.67;1.63;;;;;;;;;;5025376;28;20045;-58
2021/01/15 19:36:50;;;;;;;0.20;0.20;;;;;;;;;;5024417;28;20037;-57
2021/01/15 19:39:17;;;;;;;0.35;0.35;;;;;;;;;;5026408;28;20029;-57
2021/01/15 19:41:43;;;;;;;0.20;0.20;;;;;;;;;;5023963;28;20038;-57
2021/01/15 19:44:09;;;;;;;0.25;0.25;;;;;;;;;;5024560;28;20029;-56
2021/01/15 19:46:38;;;;;;;0.20;0.20;;;;;;;;;;5023666;28;20475;-57
2021/01/15 19:49:04;;;;;;;0.20;0.20;;;;;;;;;;5026627;28;20025;-58
2021/01/15 19:51:30;;;;;;;0.60;0.60;;;;;;;;;;5026453;28;20041;-57
2021/01/15 19:53:57;;;;;;;0.20;0.20;;;;;;;;;;5027470;28;20096;-57
2021/01/15 19:56:23;;;;;;;0.20;0.20;;;;;;;;;;5019266;28;20041;-56
2021/01/15 19:58:49;;;;;;;0.10;0.10;;;;;;;;;;5022381;28;20375;-58
2021/01/15 20:01:15;;;;;;;0.30;0.30;;;;;;;;;;5025883;28;20045;-57
2021/01/15 20:03:41;;;;;;;0.28;0.28;;;;;;;;;;5025721;28;20137;-57
2021/01/15 20:06:07;;;;;;;0.20;0.20;;;;;;;;;;5026654;28;20083;-58
2021/01/15 20:08:33;;;;;;;0.13;0.13;;;;;;;;;;5027304;28;20774;-57
2021/01/15 20:11:00;;;;;;;0.30;0.30;;;;;;;;;;5026661;28;20041;-58
2021/01/15 20:13:26;;;;;;;0.90;0.75;;;;;;;;;;5025267;28;20025;-57
2021/01/15 20:15:53;;;;;;;0.20;0.20;;;;;;;;;;5026344;28;20061;-57
2021/01/15 20:18:20;;;;;;;1.65;1.55;;;;;;;;;;5026302;28;20415;-57
2021/01/15 20:20:47;;;;;;;0.20;0.20;;;;;;;;;;5027230;28;20112;-58
2021/01/15 20:23:13;;;;;;;0.20;0.20;;;;;;;;;;5020782;28;20026;-58
2021/01/15 20:25:40;;;;;;;0.28;0.28;;;;;;;;;;5024822;28;20037;-57
2021/01/15 20:28:11;;;;;;;0.50;0.50;;;;;;;;;;5023429;28;20083;-58
2021/01/15 20:30:38;;;;;;;0.10;0.10;;;;;;;;;;5018935;28;20033;-57
2021/01/15 20:33:06;;;;;;;0.20;0.20;;;;;;;;;;5011510;28;20029;-58
2021/01/15 20:35:32;;;;;;;0.82;0.82;;;;;;;;;;5012215;28;20022;-56
2021/01/15 20:37:58;;;;;;;0.20;0.20;;;;;;;;;;5014342;28;20025;-58
2021/01/15 20:40:25;;;;;;;0.30;0.30;;;;;;;;;;5012926;28;20025;-57
2021/01/15 20:42:51;;;;;;;0.20;0.20;;;;;;;;;;5009489;28;20145;-58
2021/01/15 20:45:19;;;;;;;2.15;2.05;;;;;;;;;;5012093;28;20076;-58